sensor_id;sensor_type;location;lat;lon;timestamp;P1;durP1;ratioP1;P2;durP2;ratioP2
21681;SDS011;11002;48.256;10.084;2023-05-08T00:02:03;7.93;;;6.28;;
21681;SDS011;11002;48.256;10.084;2023-05-08T00:04:30;6.18;;;5.43;;
21681;SDS011;11002;48.256;10.084;2023-05-08T00:06:59;12.60;;;5.32;;
21681;SDS011;11002;48.256;10.084;2023-05-08T00:09:26;6.75;;;5.45;;
21681;SDS011;11002;48.256;10.084;2023-05-08T00:11:53;15.18;;;5.65;;
21681;SDS011;11002;48.256;10.084;2023-05-08T00:14:21;8.45;;;5.22;;
21681;SDS011;11002;48.256;10.084;2023-05-08T00:16:48;7.13;;;5.25;;
21681;SDS011;11002;48.256;10.084;2023-05-08T00:19:16;6.63;;;5.53;;
21681;SDS011;11002;48.256;10.084;2023-05-08T00:21:43;6.07;;;5.47;;
21681;SDS011;11002;48.256;10.084;2023-05-08T00:24:11;7.28;;;5.25;;
21681;SDS011;11002;48.256;10.084;2023-05-08T00:26:39;7.78;;;5.28;;
21681;SDS011;11002;48.256;10.084;2023-05-08T00:29:08;5.35;;;4.90;;
21681;SDS011;11002;48.256;10.084;2023-05-08T00:31:36;5.47;;;4.97;;
21681;SDS011;11002;48.256;10.084;2023-05-08T00:34:03;6.72;;;5.57;;
21681;SDS011;11002;48.256;10.084;2023-05-08T00:36:30;6.18;;;5.22;;
21681;SDS011;11002;48.256;10.084;2023-05-08T00:38:58;6.05;;;5.43;;
21681;SDS011;11002;48.256;10.084;2023-05-08T00:41:26;5.72;;;5.22;;
21681;SDS011;11002;48.256;10.084;2023-05-08T00:43:54;8.75;;;5.35;;
21681;SDS011;11002;48.256;10.084;2023-05-08T00:46:21;9.45;;;6.53;;
21681;SDS011;11002;48.256;10.084;2023-05-08T00:48:48;6.22;;;5.63;;
21681;SDS011;11002;48.256;10.084;2023-05-08T00:51:15;6.50;;;5.72;;
21681;SDS011;11002;48.256;10.084;2023-05-08T00:53:43;6.55;;;5.95;;
21681;SDS011;11002;48.256;10.084;2023-05-08T00:56:11;6.28;;;5.78;;
21681;SDS011;11002;48.256;10.084;2023-05-08T00:58:41;6.05;;;5.55;;
21681;SDS011;11002;48.256;10.084;2023-05-08T01:01:10;6.50;;;5.90;;
21681;SDS011;11002;48.256;10.084;2023-05-08T01:03:37;6.40;;;5.78;;
21681;SDS011;11002;48.256;10.084;2023-05-08T01:06:05;6.95;;;5.90;;
21681;SDS011;11002;48.256;10.084;2023-05-08T01:08:33;8.73;;;6.18;;
21681;SDS011;11002;48.256;10.084;2023-05-08T01:11:02;7.43;;;6.05;;
21681;SDS011;11002;48.256;10.084;2023-05-08T01:13:45;7.30;;;6.57;;
21681;SDS011;11002;48.256;10.084;2023-05-08T01:16:22;7.70;;;6.82;;
21681;SDS011;11002;48.256;10.084;2023-05-08T01:18:58;9.90;;;7.55;;
21681;SDS011;11002;48.256;10.084;2023-05-08T01:21:33;10.68;;;6.50;;
21681;SDS011;11002;48.256;10.084;2023-05-08T01:24:25;7.10;;;6.40;;
21681;SDS011;11002;48.256;10.084;2023-05-08T01:27:13;8.43;;;7.63;;
21681;SDS011;11002;48.256;10.084;2023-05-08T01:32:47;6.78;;;6.10;;
21681;SDS011;11002;48.256;10.084;2023-05-08T01:35:23;8.45;;;6.55;;
21681;SDS011;11002;48.256;10.084;2023-05-08T01:40:27;9.27;;;7.32;;
21681;SDS011;11002;48.256;10.084;2023-05-08T01:45:52;7.88;;;6.72;;
21681;SDS011;11002;48.256;10.084;2023-05-08T01:48:23;6.95;;;6.25;;
21681;SDS011;11002;48.256;10.084;2023-05-08T01:50:55;6.88;;;6.28;;
21681;SDS011;11002;48.256;10.084;2023-05-08T01:53:28;8.63;;;6.72;;
21681;SDS011;11002;48.256;10.084;2023-05-08T01:56:01;6.60;;;6.00;;
21681;SDS011;11002;48.256;10.084;2023-05-08T01:58:33;7.88;;;5.97;;
21681;SDS011;11002;48.256;10.084;2023-05-08T02:01:02;7.10;;;6.40;;
21681;SDS011;11002;48.256;10.084;2023-05-08T02:03:32;7.22;;;5.95;;
21681;SDS011;11002;48.256;10.084;2023-05-08T02:06:03;11.48;;;6.18;;
21681;SDS011;11002;48.256;10.084;2023-05-08T02:08:32;7.20;;;6.50;;
21681;SDS011;11002;48.256;10.084;2023-05-08T02:11:03;6.05;;;5.55;;
21681;SDS011;11002;48.256;10.084;2023-05-08T02:13:32;6.22;;;5.60;;
21681;SDS011;11002;48.256;10.084;2023-05-08T02:16:01;10.35;;;6.28;;
21681;SDS011;11002;48.256;10.084;2023-05-08T02:18:29;7.75;;;6.15;;
21681;SDS011;11002;48.256;10.084;2023-05-08T02:21:01;5.72;;;5.22;;
21681;SDS011;11002;48.256;10.084;2023-05-08T02:23:30;8.02;;;5.75;;
21681;SDS011;11002;48.256;10.084;2023-05-08T02:25:59;10.20;;;6.63;;
21681;SDS011;11002;48.256;10.084;2023-05-08T02:28:29;6.10;;;5.25;;
21681;SDS011;11002;48.256;10.084;2023-05-08T02:30:58;9.65;;;5.97;;
21681;SDS011;11002;48.256;10.084;2023-05-08T02:33:27;6.80;;;6.20;;
21681;SDS011;11002;48.256;10.084;2023-05-08T02:35:57;7.65;;;6.05;;
21681;SDS011;11002;48.256;10.084;2023-05-08T02:38:26;10.95;;;6.63;;
21681;SDS011;11002;48.256;10.084;2023-05-08T02:40:57;7.43;;;6.18;;
21681;SDS011;11002;48.256;10.084;2023-05-08T02:43:28;9.30;;;5.95;;
21681;SDS011;11002;48.256;10.084;2023-05-08T02:45:58;6.25;;;5.68;;
21681;SDS011;11002;48.256;10.084;2023-05-08T02:48:36;10.18;;;6.70;;
21681;SDS011;11002;48.256;10.084;2023-05-08T02:51:17;7.50;;;5.97;;
21681;SDS011;11002;48.256;10.084;2023-05-08T02:53:49;8.85;;;6.55;;
21681;SDS011;11002;48.256;10.084;2023-05-08T02:56:26;6.65;;;6.03;;
21681;SDS011;11002;48.256;10.084;2023-05-08T02:59:06;7.82;;;6.40;;
21681;SDS011;11002;48.256;10.084;2023-05-08T03:01:43;8.18;;;7.38;;
21681;SDS011;11002;48.256;10.084;2023-05-08T03:04:18;7.80;;;7.00;;
21681;SDS011;11002;48.256;10.084;2023-05-08T03:06:53;8.60;;;7.68;;
21681;SDS011;11002;48.256;10.084;2023-05-08T03:09:23;8.68;;;7.85;;
21681;SDS011;11002;48.256;10.084;2023-05-08T03:11:58;10.23;;;8.07;;
21681;SDS011;11002;48.256;10.084;2023-05-08T03:14:29;8.02;;;7.07;;
21681;SDS011;11002;48.256;10.084;2023-05-08T03:17:01;8.07;;;7.28;;
21681;SDS011;11002;48.256;10.084;2023-05-08T03:19:35;7.60;;;6.57;;
21681;SDS011;11002;48.256;10.084;2023-05-08T03:22:06;9.73;;;7.35;;
21681;SDS011;11002;48.256;10.084;2023-05-08T03:24:35;8.35;;;7.20;;
21681;SDS011;11002;48.256;10.084;2023-05-08T03:27:04;9.82;;;7.18;;
21681;SDS011;11002;48.256;10.084;2023-05-08T03:29:34;8.82;;;7.43;;
21681;SDS011;11002;48.256;10.084;2023-05-08T03:32:04;9.40;;;7.55;;
21681;SDS011;11002;48.256;10.084;2023-05-08T03:34:32;9.40;;;7.78;;
21681;SDS011;11002;48.256;10.084;2023-05-08T03:37:01;9.27;;;8.32;;
21681;SDS011;11002;48.256;10.084;2023-05-08T03:39:30;9.63;;;8.32;;
21681;SDS011;11002;48.256;10.084;2023-05-08T03:41:57;9.95;;;8.55;;
21681;SDS011;11002;48.256;10.084;2023-05-08T03:44:26;10.82;;;8.95;;
21681;SDS011;11002;48.256;10.084;2023-05-08T03:46:55;10.63;;;9.52;;
21681;SDS011;11002;48.256;10.084;2023-05-08T03:49:26;9.07;;;8.13;;
21681;SDS011;11002;48.256;10.084;2023-05-08T03:51:56;10.73;;;9.63;;
21681;SDS011;11002;48.256;10.084;2023-05-08T03:54:24;11.55;;;9.20;;
21681;SDS011;11002;48.256;10.084;2023-05-08T03:56:54;12.02;;;9.80;;
21681;SDS011;11002;48.256;10.084;2023-05-08T03:59:23;10.15;;;8.75;;
21681;SDS011;11002;48.256;10.084;2023-05-08T04:01:58;16.50;;;9.80;;
21681;SDS011;11002;48.256;10.084;2023-05-08T04:04:32;12.15;;;10.23;;
21681;SDS011;11002;48.256;10.084;2023-05-08T04:07:07;11.00;;;9.90;;
21681;SDS011;11002;48.256;10.084;2023-05-08T04:09:43;19.00;;;13.05;;
21681;SDS011;11002;48.256;10.084;2023-05-08T04:12:25;16.38;;;13.48;;
21681;SDS011;11002;48.256;10.084;2023-05-08T04:15:00;14.57;;;11.38;;
21681;SDS011;11002;48.256;10.084;2023-05-08T04:17:33;11.52;;;10.02;;
21681;SDS011;11002;48.256;10.084;2023-05-08T04:20:06;10.25;;;9.25;;
21681;SDS011;11002;48.256;10.084;2023-05-08T04:22:37;11.60;;;9.88;;
21681;SDS011;11002;48.256;10.084;2023-05-08T04:25:06;11.27;;;9.10;;
21681;SDS011;11002;48.256;10.084;2023-05-08T04:27:37;10.43;;;8.45;;
21681;SDS011;11002;48.256;10.084;2023-05-08T04:30:06;13.93;;;9.55;;
21681;SDS011;11002;48.256;10.084;2023-05-08T04:32:35;12.10;;;9.38;;
21681;SDS011;11002;48.256;10.084;2023-05-08T04:35:04;9.73;;;8.60;;
21681;SDS011;11002;48.256;10.084;2023-05-08T04:37:32;10.98;;;9.63;;
21681;SDS011;11002;48.256;10.084;2023-05-08T04:40:01;13.27;;;11.15;;
21681;SDS011;11002;48.256;10.084;2023-05-08T04:42:30;15.23;;;10.90;;
21681;SDS011;11002;48.256;10.084;2023-05-08T04:45:03;17.90;;;10.52;;
21681;SDS011;11002;48.256;10.084;2023-05-08T04:47:32;12.20;;;10.63;;
21681;SDS011;11002;48.256;10.084;2023-05-08T04:50:00;13.52;;;10.98;;
21681;SDS011;11002;48.256;10.084;2023-05-08T04:52:28;11.38;;;10.10;;
21681;SDS011;11002;48.256;10.084;2023-05-08T04:54:55;14.40;;;10.57;;
21681;SDS011;11002;48.256;10.084;2023-05-08T04:57:23;15.65;;;11.77;;
21681;SDS011;11002;48.256;10.084;2023-05-08T04:59:50;14.50;;;12.10;;
21681;SDS011;11002;48.256;10.084;2023-05-08T05:02:19;14.93;;;12.32;;
21681;SDS011;11002;48.256;10.084;2023-05-08T05:04:47;15.18;;;11.25;;
21681;SDS011;11002;48.256;10.084;2023-05-08T05:07:15;16.40;;;12.68;;
21681;SDS011;11002;48.256;10.084;2023-05-08T05:09:43;16.55;;;12.85;;
21681;SDS011;11002;48.256;10.084;2023-05-08T05:12:10;14.55;;;12.27;;
21681;SDS011;11002;48.256;10.084;2023-05-08T05:14:37;16.42;;;12.85;;
21681;SDS011;11002;48.256;10.084;2023-05-08T05:17:05;18.80;;;13.35;;
21681;SDS011;11002;48.256;10.084;2023-05-08T05:19:34;16.45;;;12.85;;
21681;SDS011;11002;48.256;10.084;2023-05-08T05:22:01;17.83;;;13.18;;
21681;SDS011;11002;48.256;10.084;2023-05-08T05:24:30;17.05;;;12.52;;
21681;SDS011;11002;48.256;10.084;2023-05-08T05:26:58;16.10;;;13.35;;
21681;SDS011;11002;48.256;10.084;2023-05-08T05:29:25;18.75;;;13.60;;
21681;SDS011;11002;48.256;10.084;2023-05-08T05:31:54;17.73;;;13.70;;
21681;SDS011;11002;48.256;10.084;2023-05-08T05:34:21;15.93;;;12.70;;
21681;SDS011;11002;48.256;10.084;2023-05-08T05:36:50;18.58;;;13.95;;
21681;SDS011;11002;48.256;10.084;2023-05-08T05:39:17;17.38;;;12.63;;
21681;SDS011;11002;48.256;10.084;2023-05-08T05:41:44;17.52;;;12.57;;
21681;SDS011;11002;48.256;10.084;2023-05-08T05:44:11;14.23;;;12.43;;
21681;SDS011;11002;48.256;10.084;2023-05-08T05:46:39;16.33;;;12.82;;
21681;SDS011;11002;48.256;10.084;2023-05-08T05:49:06;17.15;;;12.15;;
21681;SDS011;11002;48.256;10.084;2023-05-08T05:51:34;14.73;;;12.40;;
21681;SDS011;11002;48.256;10.084;2023-05-08T05:54:02;16.02;;;12.15;;
21681;SDS011;11002;48.256;10.084;2023-05-08T05:56:30;15.60;;;12.88;;
21681;SDS011;11002;48.256;10.084;2023-05-08T05:58:57;16.35;;;12.25;;
21681;SDS011;11002;48.256;10.084;2023-05-08T06:01:25;17.20;;;12.32;;
21681;SDS011;11002;48.256;10.084;2023-05-08T06:03:53;16.50;;;12.30;;
21681;SDS011;11002;48.256;10.084;2023-05-08T06:06:20;14.40;;;12.30;;
21681;SDS011;11002;48.256;10.084;2023-05-08T06:08:48;16.83;;;12.88;;
21681;SDS011;11002;48.256;10.084;2023-05-08T06:11:16;16.90;;;12.30;;
21681;SDS011;11002;48.256;10.084;2023-05-08T06:13:44;18.77;;;13.02;;
21681;SDS011;11002;48.256;10.084;2023-05-08T06:16:11;17.30;;;13.60;;
21681;SDS011;11002;48.256;10.084;2023-05-08T06:18:39;15.80;;;12.65;;
21681;SDS011;11002;48.256;10.084;2023-05-08T06:21:08;17.67;;;13.65;;
21681;SDS011;11002;48.256;10.084;2023-05-08T06:23:35;16.65;;;13.43;;
21681;SDS011;11002;48.256;10.084;2023-05-08T06:26:03;15.93;;;13.57;;
21681;SDS011;11002;48.256;10.084;2023-05-08T06:28:31;19.65;;;13.27;;
21681;SDS011;11002;48.256;10.084;2023-05-08T06:30:59;15.43;;;12.98;;
21681;SDS011;11002;48.256;10.084;2023-05-08T06:33:26;16.85;;;13.63;;
21681;SDS011;11002;48.256;10.084;2023-05-08T06:35:54;17.83;;;14.48;;
21681;SDS011;11002;48.256;10.084;2023-05-08T06:38:21;16.25;;;13.40;;
21681;SDS011;11002;48.256;10.084;2023-05-08T06:40:48;16.95;;;13.73;;
21681;SDS011;11002;48.256;10.084;2023-05-08T06:43:16;16.23;;;13.88;;
21681;SDS011;11002;48.256;10.084;2023-05-08T06:45:44;17.70;;;13.68;;
21681;SDS011;11002;48.256;10.084;2023-05-08T06:48:11;19.42;;;14.88;;
21681;SDS011;11002;48.256;10.084;2023-05-08T06:50:39;17.42;;;13.77;;
21681;SDS011;11002;48.256;10.084;2023-05-08T06:53:07;18.27;;;15.48;;
21681;SDS011;11002;48.256;10.084;2023-05-08T06:55:34;20.20;;;14.98;;
21681;SDS011;11002;48.256;10.084;2023-05-08T06:58:02;21.33;;;14.25;;
21681;SDS011;11002;48.256;10.084;2023-05-08T07:00:29;18.15;;;15.30;;
21681;SDS011;11002;48.256;10.084;2023-05-08T07:02:57;21.58;;;17.13;;
21681;SDS011;11002;48.256;10.084;2023-05-08T07:05:25;25.40;;;15.73;;
21681;SDS011;11002;48.256;10.084;2023-05-08T07:07:52;22.67;;;19.15;;
21681;SDS011;11002;48.256;10.084;2023-05-08T07:10:19;24.77;;;19.75;;
21681;SDS011;11002;48.256;10.084;2023-05-08T07:12:47;20.60;;;16.85;;
21681;SDS011;11002;48.256;10.084;2023-05-08T07:15:14;22.67;;;16.63;;
21681;SDS011;11002;48.256;10.084;2023-05-08T07:17:42;19.33;;;15.65;;
21681;SDS011;11002;48.256;10.084;2023-05-08T07:20:10;20.75;;;14.40;;
21681;SDS011;11002;48.256;10.084;2023-05-08T07:22:38;20.55;;;15.90;;
21681;SDS011;11002;48.256;10.084;2023-05-08T07:25:05;20.08;;;15.13;;
21681;SDS011;11002;48.256;10.084;2023-05-08T07:27:33;19.00;;;14.20;;
21681;SDS011;11002;48.256;10.084;2023-05-08T07:30:01;21.70;;;14.25;;
21681;SDS011;11002;48.256;10.084;2023-05-08T07:32:29;15.57;;;13.13;;
21681;SDS011;11002;48.256;10.084;2023-05-08T07:34:57;16.33;;;14.02;;
21681;SDS011;11002;48.256;10.084;2023-05-08T07:37:25;20.80;;;15.13;;
21681;SDS011;11002;48.256;10.084;2023-05-08T07:39:53;17.70;;;14.82;;
21681;SDS011;11002;48.256;10.084;2023-05-08T07:42:21;19.58;;;15.38;;
21681;SDS011;11002;48.256;10.084;2023-05-08T07:44:48;18.13;;;15.30;;
21681;SDS011;11002;48.256;10.084;2023-05-08T07:47:15;17.30;;;15.15;;
21681;SDS011;11002;48.256;10.084;2023-05-08T07:49:42;21.02;;;15.93;;
21681;SDS011;11002;48.256;10.084;2023-05-08T07:52:10;19.60;;;15.65;;
21681;SDS011;11002;48.256;10.084;2023-05-08T07:54:38;13.65;;;11.13;;
21681;SDS011;11002;48.256;10.084;2023-05-08T07:57:05;14.48;;;11.23;;
21681;SDS011;11002;48.256;10.084;2023-05-08T07:59:33;14.98;;;10.38;;
21681;SDS011;11002;48.256;10.084;2023-05-08T08:02:00;12.10;;;9.85;;
21681;SDS011;11002;48.256;10.084;2023-05-08T08:04:27;11.52;;;9.52;;
21681;SDS011;11002;48.256;10.084;2023-05-08T08:06:55;11.02;;;7.57;;
21681;SDS011;11002;48.256;10.084;2023-05-08T08:09:22;9.10;;;7.60;;
21681;SDS011;11002;48.256;10.084;2023-05-08T08:11:50;8.95;;;7.90;;
21681;SDS011;11002;48.256;10.084;2023-05-08T08:14:17;7.25;;;6.25;;
21681;SDS011;11002;48.256;10.084;2023-05-08T08:16:45;12.23;;;7.00;;
21681;SDS011;11002;48.256;10.084;2023-05-08T08:19:12;8.82;;;6.30;;
21681;SDS011;11002;48.256;10.084;2023-05-08T08:21:40;7.22;;;6.38;;
21681;SDS011;11002;48.256;10.084;2023-05-08T08:24:08;7.15;;;6.45;;
21681;SDS011;11002;48.256;10.084;2023-05-08T08:26:35;8.25;;;6.60;;
21681;SDS011;11002;48.256;10.084;2023-05-08T08:29:04;7.75;;;6.75;;
21681;SDS011;11002;48.256;10.084;2023-05-08T08:31:31;10.73;;;9.73;;
21681;SDS011;11002;48.256;10.084;2023-05-08T08:33:58;7.93;;;6.00;;
21681;SDS011;11002;48.256;10.084;2023-05-08T08:36:26;8.43;;;7.47;;
21681;SDS011;11002;48.256;10.084;2023-05-08T08:38:53;8.10;;;7.28;;
21681;SDS011;11002;48.256;10.084;2023-05-08T08:41:20;9.35;;;7.68;;
21681;SDS011;11002;48.256;10.084;2023-05-08T08:43:48;8.45;;;7.15;;
21681;SDS011;11002;48.256;10.084;2023-05-08T08:46:16;8.15;;;7.35;;
21681;SDS011;11002;48.256;10.084;2023-05-08T08:48:49;8.30;;;6.65;;
21681;SDS011;11002;48.256;10.084;2023-05-08T08:51:22;5.07;;;4.60;;
21681;SDS011;11002;48.256;10.084;2023-05-08T08:53:54;5.60;;;5.10;;
21681;SDS011;11002;48.256;10.084;2023-05-08T08:56:30;6.00;;;5.40;;
21681;SDS011;11002;48.256;10.084;2023-05-08T08:58:59;5.25;;;4.63;;
21681;SDS011;11002;48.256;10.084;2023-05-08T09:01:29;4.60;;;4.20;;
21681;SDS011;11002;48.256;10.084;2023-05-08T09:04:00;4.85;;;4.45;;
21681;SDS011;11002;48.256;10.084;2023-05-08T09:06:27;4.65;;;4.25;;
21681;SDS011;11002;48.256;10.084;2023-05-08T09:08:55;4.07;;;3.70;;
21681;SDS011;11002;48.256;10.084;2023-05-08T09:11:23;4.43;;;4.13;;
21681;SDS011;11002;48.256;10.084;2023-05-08T09:13:50;4.57;;;3.70;;
21681;SDS011;11002;48.256;10.084;2023-05-08T09:16:18;8.48;;;7.40;;
21681;SDS011;11002;48.256;10.084;2023-05-08T09:18:46;9.75;;;8.70;;
21681;SDS011;11002;48.256;10.084;2023-05-08T09:21:13;11.80;;;8.82;;
21681;SDS011;11002;48.256;10.084;2023-05-08T09:23:53;11.35;;;9.70;;
21681;SDS011;11002;48.256;10.084;2023-05-08T09:26:26;14.13;;;9.80;;
21681;SDS011;11002;48.256;10.084;2023-05-08T09:29:09;10.70;;;9.60;;
21681;SDS011;11002;48.256;10.084;2023-05-08T09:31:38;12.55;;;9.43;;
21681;SDS011;11002;48.256;10.084;2023-05-08T09:34:08;13.00;;;10.60;;
21681;SDS011;11002;48.256;10.084;2023-05-08T09:36:37;14.75;;;10.02;;
21681;SDS011;11002;48.256;10.084;2023-05-08T09:39:10;11.50;;;10.32;;
21681;SDS011;11002;48.256;10.084;2023-05-08T09:41:38;12.85;;;10.38;;
21681;SDS011;11002;48.256;10.084;2023-05-08T09:44:05;14.93;;;11.68;;
21681;SDS011;11002;48.256;10.084;2023-05-08T09:46:33;12.40;;;10.10;;
21681;SDS011;11002;48.256;10.084;2023-05-08T09:49:01;11.75;;;10.07;;
21681;SDS011;11002;48.256;10.084;2023-05-08T09:51:30;15.85;;;10.48;;
21681;SDS011;11002;48.256;10.084;2023-05-08T09:53:58;11.57;;;10.00;;
21681;SDS011;11002;48.256;10.084;2023-05-08T09:56:32;14.15;;;11.43;;
21681;SDS011;11002;48.256;10.084;2023-05-08T09:59:00;14.30;;;11.65;;
21681;SDS011;11002;48.256;10.084;2023-05-08T10:01:29;15.25;;;11.80;;
21681;SDS011;11002;48.256;10.084;2023-05-08T10:03:58;15.57;;;12.23;;
21681;SDS011;11002;48.256;10.084;2023-05-08T10:06:26;13.65;;;10.85;;
21681;SDS011;11002;48.256;10.084;2023-05-08T10:09:08;14.23;;;11.77;;
21681;SDS011;11002;48.256;10.084;2023-05-08T10:11:37;14.25;;;11.88;;
21681;SDS011;11002;48.256;10.084;2023-05-08T10:14:04;14.45;;;12.02;;
21681;SDS011;11002;48.256;10.084;2023-05-08T10:16:35;14.32;;;11.60;;
21681;SDS011;11002;48.256;10.084;2023-05-08T10:19:07;15.35;;;12.45;;
21681;SDS011;11002;48.256;10.084;2023-05-08T10:21:39;16.80;;;12.30;;
21681;SDS011;11002;48.256;10.084;2023-05-08T10:24:12;14.98;;;12.02;;
21681;SDS011;11002;48.256;10.084;2023-05-08T10:26:42;13.30;;;11.90;;
21681;SDS011;11002;48.256;10.084;2023-05-08T10:29:16;15.23;;;11.55;;
21681;SDS011;11002;48.256;10.084;2023-05-08T10:31:46;13.63;;;12.15;;
21681;SDS011;11002;48.256;10.084;2023-05-08T10:34:18;13.60;;;11.32;;
21681;SDS011;11002;48.256;10.084;2023-05-08T10:36:47;15.02;;;12.15;;
21681;SDS011;11002;48.256;10.084;2023-05-08T10:39:18;16.00;;;12.98;;
21681;SDS011;11002;48.256;10.084;2023-05-08T10:41:47;15.18;;;11.70;;
21681;SDS011;11002;48.256;10.084;2023-05-08T10:44:15;16.13;;;12.18;;
21681;SDS011;11002;48.256;10.084;2023-05-08T10:46:45;15.02;;;12.25;;
21681;SDS011;11002;48.256;10.084;2023-05-08T10:49:19;15.82;;;12.77;;
21681;SDS011;11002;48.256;10.084;2023-05-08T10:51:57;16.08;;;13.23;;
21681;SDS011;11002;48.256;10.084;2023-05-08T10:54:37;15.98;;;14.20;;
21681;SDS011;11002;48.256;10.084;2023-05-08T10:57:17;21.92;;;14.23;;
21681;SDS011;11002;48.256;10.084;2023-05-08T10:59:44;17.30;;;13.75;;
21681;SDS011;11002;48.256;10.084;2023-05-08T11:02:12;16.33;;;14.25;;
21681;SDS011;11002;48.256;10.084;2023-05-08T11:04:40;19.65;;;15.02;;
21681;SDS011;11002;48.256;10.084;2023-05-08T11:07:08;16.00;;;13.82;;
21681;SDS011;11002;48.256;10.084;2023-05-08T11:09:46;16.30;;;13.82;;
21681;SDS011;11002;48.256;10.084;2023-05-08T11:12:19;16.38;;;13.77;;
21681;SDS011;11002;48.256;10.084;2023-05-08T11:14:53;15.32;;;13.65;;
21681;SDS011;11002;48.256;10.084;2023-05-08T11:17:25;16.30;;;13.95;;
21681;SDS011;11002;48.256;10.084;2023-05-08T11:19:56;18.58;;;14.60;;
21681;SDS011;11002;48.256;10.084;2023-05-08T11:22:28;15.07;;;13.25;;
21681;SDS011;11002;48.256;10.084;2023-05-08T11:24:59;19.95;;;14.45;;
21681;SDS011;11002;48.256;10.084;2023-05-08T11:27:31;15.85;;;13.55;;
21681;SDS011;11002;48.256;10.084;2023-05-08T11:30:19;19.13;;;14.27;;
21681;SDS011;11002;48.256;10.084;2023-05-08T11:38:10;20.92;;;15.32;;
21681;SDS011;11002;48.256;10.084;2023-05-08T11:46:43;15.30;;;13.00;;
21681;SDS011;11002;48.256;10.084;2023-05-08T11:49:16;14.52;;;12.73;;
21681;SDS011;11002;48.256;10.084;2023-05-08T11:51:45;15.85;;;12.77;;
21681;SDS011;11002;48.256;10.084;2023-05-08T11:54:16;16.90;;;13.65;;
21681;SDS011;11002;48.256;10.084;2023-05-08T11:56:46;18.23;;;15.10;;
21681;SDS011;11002;48.256;10.084;2023-05-08T11:59:14;20.70;;;14.63;;
21681;SDS011;11002;48.256;10.084;2023-05-08T12:01:41;17.63;;;14.55;;
21681;SDS011;11002;48.256;10.084;2023-05-08T12:04:10;17.60;;;14.95;;
21681;SDS011;11002;48.256;10.084;2023-05-08T12:06:39;18.15;;;15.20;;
21681;SDS011;11002;48.256;10.084;2023-05-08T12:09:10;16.13;;;14.40;;
21681;SDS011;11002;48.256;10.084;2023-05-08T12:11:39;15.63;;;13.90;;
21681;SDS011;11002;48.256;10.084;2023-05-08T12:14:09;16.30;;;14.60;;
21681;SDS011;11002;48.256;10.084;2023-05-08T12:16:38;17.27;;;14.93;;
21681;SDS011;11002;48.256;10.084;2023-05-08T12:19:08;16.67;;;14.70;;
21681;SDS011;11002;48.256;10.084;2023-05-08T12:21:36;15.95;;;14.25;;
21681;SDS011;11002;48.256;10.084;2023-05-08T12:24:04;20.60;;;14.15;;
21681;SDS011;11002;48.256;10.084;2023-05-08T12:26:34;14.82;;;13.02;;
21681;SDS011;11002;48.256;10.084;2023-05-08T12:29:03;14.93;;;13.32;;
21681;SDS011;11002;48.256;10.084;2023-05-08T12:31:33;13.45;;;12.05;;
21681;SDS011;11002;48.256;10.084;2023-05-08T12:34:01;11.57;;;10.38;;
21681;SDS011;11002;48.256;10.084;2023-05-08T12:36:32;14.02;;;12.10;;
21681;SDS011;11002;48.256;10.084;2023-05-08T12:39:10;14.90;;;12.10;;
21681;SDS011;11002;48.256;10.084;2023-05-08T12:41:45;13.40;;;11.45;;
21681;SDS011;11002;48.256;10.084;2023-05-08T12:44:17;13.60;;;11.25;;
21681;SDS011;11002;48.256;10.084;2023-05-08T12:46:47;13.90;;;12.32;;
21681;SDS011;11002;48.256;10.084;2023-05-08T12:49:21;15.10;;;12.10;;
21681;SDS011;11002;48.256;10.084;2023-05-08T12:51:50;13.52;;;11.57;;
21681;SDS011;11002;48.256;10.084;2023-05-08T12:54:18;13.52;;;11.95;;
21681;SDS011;11002;48.256;10.084;2023-05-08T12:56:46;14.07;;;11.40;;
21681;SDS011;11002;48.256;10.084;2023-05-08T12:59:15;15.82;;;12.40;;
21681;SDS011;11002;48.256;10.084;2023-05-08T13:01:50;13.20;;;11.85;;
21681;SDS011;11002;48.256;10.084;2023-05-08T13:04:17;13.63;;;11.77;;
21681;SDS011;11002;48.256;10.084;2023-05-08T13:06:52;15.10;;;12.65;;
21681;SDS011;11002;48.256;10.084;2023-05-08T13:09:20;15.38;;;13.00;;
21681;SDS011;11002;48.256;10.084;2023-05-08T13:11:48;16.88;;;14.43;;
21681;SDS011;11002;48.256;10.084;2023-05-08T13:14:15;14.40;;;12.88;;
21681;SDS011;11002;48.256;10.084;2023-05-08T13:16:43;15.98;;;13.27;;
21681;SDS011;11002;48.256;10.084;2023-05-08T13:19:13;16.90;;;13.15;;
21681;SDS011;11002;48.256;10.084;2023-05-08T13:21:40;15.02;;;12.40;;
21681;SDS011;11002;48.256;10.084;2023-05-08T13:24:11;14.93;;;12.90;;
21681;SDS011;11002;48.256;10.084;2023-05-08T13:26:38;15.77;;;13.25;;
21681;SDS011;11002;48.256;10.084;2023-05-08T13:29:06;14.73;;;12.95;;
21681;SDS011;11002;48.256;10.084;2023-05-08T13:31:33;13.90;;;12.27;;
21681;SDS011;11002;48.256;10.084;2023-05-08T13:34:00;16.50;;;12.90;;
21681;SDS011;11002;48.256;10.084;2023-05-08T13:36:29;13.38;;;11.98;;
21681;SDS011;11002;48.256;10.084;2023-05-08T13:38:56;14.23;;;12.73;;
21681;SDS011;11002;48.256;10.084;2023-05-08T13:41:23;16.50;;;13.18;;
21681;SDS011;11002;48.256;10.084;2023-05-08T13:43:51;15.85;;;13.95;;
21681;SDS011;11002;48.256;10.084;2023-05-08T13:46:18;17.42;;;12.90;;
21681;SDS011;11002;48.256;10.084;2023-05-08T13:48:45;16.50;;;13.50;;
21681;SDS011;11002;48.256;10.084;2023-05-08T13:51:12;14.68;;;13.18;;
21681;SDS011;11002;48.256;10.084;2023-05-08T13:53:41;16.48;;;13.27;;
21681;SDS011;11002;48.256;10.084;2023-05-08T13:56:08;21.20;;;12.80;;
21681;SDS011;11002;48.256;10.084;2023-05-08T13:58:36;16.63;;;13.32;;
21681;SDS011;11002;48.256;10.084;2023-05-08T14:01:03;14.00;;;12.10;;
21681;SDS011;11002;48.256;10.084;2023-05-08T14:03:30;15.13;;;12.55;;
21681;SDS011;11002;48.256;10.084;2023-05-08T14:05:57;19.65;;;13.75;;
21681;SDS011;11002;48.256;10.084;2023-05-08T14:08:25;17.48;;;14.25;;
21681;SDS011;11002;48.256;10.084;2023-05-08T14:10:53;14.95;;;13.18;;
21681;SDS011;11002;48.256;10.084;2023-05-08T14:13:20;18.33;;;14.35;;
21681;SDS011;11002;48.256;10.084;2023-05-08T14:15:48;18.88;;;14.23;;
21681;SDS011;11002;48.256;10.084;2023-05-08T14:18:15;15.27;;;13.48;;
21681;SDS011;11002;48.256;10.084;2023-05-08T14:20:42;16.73;;;14.43;;
21681;SDS011;11002;48.256;10.084;2023-05-08T14:23:09;18.38;;;16.48;;
21681;SDS011;11002;48.256;10.084;2023-05-08T14:25:36;14.25;;;12.75;;
21681;SDS011;11002;48.256;10.084;2023-05-08T14:28:05;15.82;;;13.55;;
21681;SDS011;11002;48.256;10.084;2023-05-08T14:30:32;14.23;;;12.77;;
21681;SDS011;11002;48.256;10.084;2023-05-08T14:32:59;14.75;;;13.25;;
21681;SDS011;11002;48.256;10.084;2023-05-08T14:35:27;16.63;;;13.70;;
21681;SDS011;11002;48.256;10.084;2023-05-08T14:37:55;14.90;;;13.40;;
21681;SDS011;11002;48.256;10.084;2023-05-08T14:40:22;16.23;;;12.82;;
21681;SDS011;11002;48.256;10.084;2023-05-08T14:42:52;15.52;;;13.82;;
21681;SDS011;11002;48.256;10.084;2023-05-08T14:45:20;16.55;;;14.63;;
21681;SDS011;11002;48.256;10.084;2023-05-08T14:47:48;17.55;;;15.35;;
21681;SDS011;11002;48.256;10.084;2023-05-08T14:50:15;17.35;;;15.18;;
21681;SDS011;11002;48.256;10.084;2023-05-08T14:52:42;18.00;;;14.95;;